Flight Information

DEPARTURE
VICTORVILLE, CA
Elevation:
2885
Runways:
17/35 - 15050x150 - ASPH-CONC-G
3/21 - 9138x150 - ASPH-CONC-G
ATIS:
135.475
Ground:
124.45
Tower:
VICTORVILLE TOWER 118.35
DESTINATION
,
Elevation:
TPA:
1000 (est.)


6734.6 NM74° True-14° Var59° HDG

Flight Plan:
(click to file on line)

1. Type
2. Aircraft Identification
3. Aircraft Type / Special Equipment
4. True Airspeed
kts
5. Departure Airport
(ICAO code)
6. Arriving Airport
(ICAO code)
7. Cruising Altitude
ft
8. Alternate Airport
(ICAO code)
9. Route of Flight
10. Remarks


00:00:00 Departure ATIS: Destination ATIS:

Clearance Limit:
Route:
Altitude: Expect in minutes
Frequency:
Transponder: (7500 Hijack / 7600 Lost Comms / 7700 Emergency)


KVCV 282135Z AUTO 03013G20KT 10SM CLR 13/M19 A3038 RMK AO2
Time: 2022-01-28T21:35:00Z
1643406021
Winds: 30 @ 13 kts
Gusting:20 kts
Visibility: 10.0 sm
Clouds (AGL): CLR
Temperature: 13.0 C
Dew Point: -19.0 C
Pressure: 30.380905 in Hgbr


Notes:

Data extracted from FAA Digital Chart Supplement. Effective: 0901Z Thursday, DEC 2, 2021 to 0901Z Thursday, JAN 27, 2022
Current ATIS data is provided courtisy of PilotEdge.